Time;durP1;ratioP1;P1;durP2;ratioP2;P2;SDS_P1;SDS_P2;PMS_P1;PMS_P2;Temp;Humidity;BMP_temperature;BMP_pressure;BME280_temperature;BME280_humidity;BME280_pressure;Samples;Min_cycle;Max_cycle;Signal;HPM_P1;HPM_P2
2021/11/03 00:01:12;;;;;;;34.40;24.70;;;;;;;6.54;100.00;97886.71;112304;1193;60989;-76
2021/11/03 00:03:40;;;;;;;31.70;24.20;;;;;;;6.46;100.00;97890.80;112347;1192;61031;-75
2021/11/03 00:06:07;;;;;;;32.90;24.60;;;;;;;6.38;100.00;97895.59;112308;1193;66020;-75
2021/11/03 00:08:34;;;;;;;32.40;23.90;;;;;;;6.30;100.00;97906.15;112332;1192;60979;-76
2021/11/03 00:11:03;;;;;;;31.60;24.60;;;;;;;6.23;100.00;97909.14;112329;1193;64965;-76
2021/11/03 00:13:30;;;;;;;30.10;22.90;;;;;;;6.16;100.00;97914.34;112292;1193;61043;-75
2021/11/03 00:15:57;;;;;;;32.70;24.10;;;;;;;6.10;100.00;97918.98;112323;1193;61043;-77
2021/11/03 00:18:25;;;;;;;33.40;23.90;;;;;;;6.04;100.00;97924.10;112296;1193;65911;-75
2021/11/03 00:20:54;;;;;;;31.00;22.70;;;;;;;6.01;100.00;97924.30;112328;1192;60998;-75
2021/11/03 00:23:21;;;;;;;36.70;25.20;;;;;;;6.00;100.00;97923.34;112273;1178;64016;-76
2021/11/03 00:25:48;;;;;;;30.80;22.70;;;;;;;5.98;100.00;97926.29;112309;1184;60995;-77
2021/11/03 00:28:17;;;;;;;33.20;23.50;;;;;;;5.96;100.00;97927.66;112218;1193;61076;-78
2021/11/03 00:30:46;;;;;;;30.60;23.10;;;;;;;5.95;100.00;97926.50;112374;1193;66978;-76
2021/11/03 00:33:14;;;;;;;33.20;23.90;;;;;;;5.95;100.00;97927.73;112390;1192;61056;-75
2021/11/03 00:35:41;;;;;;;31.20;22.80;;;;;;;5.97;100.00;97933.40;112372;1193;62654;-76
2021/11/03 00:38:08;;;;;;;31.70;23.20;;;;;;;6.01;100.00;97934.52;112296;1193;61032;-76
2021/11/03 00:40:35;;;;;;;33.20;23.50;;;;;;;6.07;100.00;97932.57;112367;1193;61063;-77
2021/11/03 00:43:02;;;;;;;28.20;21.70;;;;;;;6.12;100.00;97931.71;112286;1192;66291;-76
2021/11/03 00:45:30;;;;;;;29.30;22.60;;;;;;;6.13;100.00;97933.56;112144;1193;61128;-75
2021/11/03 00:47:57;;;;;;;30.20;22.10;;;;;;;6.13;100.00;97931.63;112297;1193;63878;-76
2021/11/03 00:50:24;;;;;;;27.80;21.70;;;;;;;6.11;100.00;97927.52;112125;1193;61018;-76
2021/11/03 00:52:51;;;;;;;29.20;22.50;;;;;;;6.09;100.00;97918.88;112326;1192;61033;-76
2021/11/03 00:55:18;;;;;;;30.30;23.90;;;;;;;6.06;100.00;97917.63;112215;1192;64695;-76
2021/11/03 00:57:45;;;;;;;30.50;23.20;;;;;;;6.04;100.00;97916.52;112314;1193;61073;-76
2021/11/03 01:00:14;;;;;;;30.00;23.40;;;;;;;6.01;100.00;97916.73;112322;1193;62602;-75
2021/11/03 01:02:40;;;;;;;30.00;23.40;;;;;;;5.98;100.00;97923.11;112345;1193;61077;-76
2021/11/03 01:05:11;;;;;;;33.90;25.00;;;;;;;5.94;100.00;97926.17;112301;1192;60974;-76
2021/11/03 01:07:37;;;;;;;31.60;23.70;;;;;;;5.89;100.00;97928.39;112338;1192;66009;-76
2021/11/03 01:10:06;;;;;;;31.90;25.20;;;;;;;5.85;100.00;97926.23;112321;1193;61062;-75
2021/11/03 01:12:34;;;;;;;33.40;25.10;;;;;;;5.80;100.00;97934.49;112167;1193;63931;-77
2021/11/03 01:15:03;;;;;;;34.40;26.00;;;;;;;5.74;100.00;97939.98;112293;1193;61039;-78
2021/11/03 01:17:29;;;;;;;34.90;25.80;;;;;;;5.67;100.00;97934.56;112187;1193;61093;-76
2021/11/03 01:19:56;;;;;;;34.70;27.30;;;;;;;5.60;100.00;97931.50;112255;1192;66015;-77
2021/11/03 01:22:23;;;;;;;37.30;28.00;;;;;;;5.56;100.00;97936.73;112291;1192;60954;-77
2021/11/03 01:24:49;;;;;;;34.40;28.50;;;;;;;5.52;100.00;97940.66;112300;1193;62665;-76
2021/11/03 01:27:16;;;;;;;32.80;26.00;;;;;;;5.48;100.00;97945.85;112329;1193;61023;-76
2021/11/03 01:29:42;;;;;;;32.30;24.70;;;;;;;5.43;100.00;97949.48;112348;1192;61084;-76
2021/11/03 01:32:09;;;;;;;35.00;25.40;;;;;;;5.39;100.00;97951.70;112292;1193;66357;-77
2021/11/03 01:34:35;;;;;;;36.60;27.20;;;;;;;5.35;100.00;97958.33;112291;1193;61028;-75
2021/11/03 01:37:02;;;;;;;32.00;26.10;;;;;;;5.30;100.00;97955.25;112127;1193;63982;-78
2021/11/03 01:39:29;;;;;;;33.60;26.30;;;;;;;5.27;100.00;97957.05;112316;1192;61003;-78
2021/11/03 01:41:55;;;;;;;36.90;28.20;;;;;;;5.24;100.00;97956.52;112298;1193;60936;-78
2021/11/03 01:44:22;;;;;;;38.90;30.60;;;;;;;5.23;100.00;97952.13;112316;1192;64504;-75
2021/11/03 01:46:57;;;;;;;38.70;28.70;;;;;;;5.24;100.00;97953.31;112321;1193;61068;-75
2021/11/03 01:49:29;;;;;;;33.40;26.70;;;;;;;5.24;100.00;97956.13;112304;1192;62744;-76
2021/11/03 01:52:05;;;;;;;39.80;30.00;;;;;;;5.24;100.00;97962.27;112375;1187;61027;-77
2021/11/03 01:54:40;;;;;;;40.10;28.90;;;;;;;5.24;100.00;97961.77;112316;1193;60944;-76
2021/11/03 01:57:11;;;;;;;45.90;30.50;;;;;;;5.24;100.00;97955.98;112343;1193;66659;-76
2021/11/03 01:59:42;;;;;;;39.30;29.10;;;;;;;5.25;100.00;97956.80;112362;1193;61052;-76
2021/11/03 02:02:11;;;;;;;48.90;33.20;;;;;;;5.24;100.00;97956.30;112312;1192;65354;-76
2021/11/03 02:04:38;;;;;;;40.70;31.10;;;;;;;5.22;100.00;97958.37;112336;1192;61039;-75
2021/11/03 02:07:10;;;;;;;42.40;32.40;;;;;;;5.19;100.00;97962.98;112337;1192;61038;-76
2021/11/03 02:09:37;;;;;;;33.80;25.00;;;;;;;5.13;100.00;97962.98;112327;1192;65989;-75
2021/11/03 02:12:05;;;;;;;44.20;31.30;;;;;;;5.07;100.00;97961.05;112335;1193;61781;-77
2021/11/03 02:14:32;;;;;;;40.20;30.80;;;;;;;5.01;100.00;97956.86;112327;1193;64020;-76
2021/11/03 02:16:59;;;;;;;34.20;27.30;;;;;;;4.95;100.00;97958.48;112189;1193;60987;-76
2021/11/03 02:19:31;;;;;;;35.10;26.40;;;;;;;4.88;100.00;97959.05;112313;1193;61065;-75
2021/11/03 02:22:01;;;;;;;33.90;27.60;;;;;;;4.81;100.00;97956.65;112325;1177;66140;-76
2021/11/03 02:24:35;;;;;;;34.80;26.50;;;;;;;4.75;100.00;97956.14;112308;1193;60983;-76
2021/11/03 02:27:03;;;;;;;37.90;29.70;;;;;;;4.67;100.00;97952.92;112380;1184;64001;-76
2021/11/03 02:29:30;;;;;;;38.70;28.80;;;;;;;4.60;100.00;97952.45;112315;1192;60966;-77
2021/11/03 02:32:15;;;;;;;43.40;32.90;;;;;;;4.57;100.00;97952.14;112170;1193;60987;-76
2021/11/03 02:34:42;;;;;;;51.30;38.20;;;;;;;4.54;100.00;97947.52;112349;1192;66028;-76
2021/11/03 02:37:26;;;;;;;47.40;38.10;;;;;;;4.55;100.00;97943.77;112281;1193;61026;-76
2021/11/03 02:40:07;;;;;;;56.80;42.60;;;;;;;4.58;100.00;97945.56;112172;1193;62621;-76
2021/11/03 02:42:36;;;;;;;;;;;;;;;4.64;100.00;97939.59;112350;1193;61004;-76
2021/11/03 02:45:09;;;;;;;52.60;41.00;;;;;;;4.70;100.00;97938.52;112329;1192;61061;-76
2021/11/03 02:47:36;;;;;;;61.10;42.30;;;;;;;4.78;100.00;97937.33;112291;1193;66211;-76
2021/11/03 02:50:09;;;;;;;64.50;46.60;;;;;;;4.86;100.00;97934.74;112341;1192;61053;-76
2021/11/03 02:52:36;;;;;;;64.00;45.20;;;;;;;4.93;100.00;97936.61;112324;1193;64050;-75
2021/11/03 02:55:06;;;;;;;62.90;46.20;;;;;;;4.97;100.00;97933.84;112288;1192;61061;-76
2021/11/03 02:57:32;;;;;;;56.70;41.40;;;;;;;5.01;100.00;97935.35;112395;1192;61078;-76
2021/11/03 03:00:00;;;;;;;57.70;42.80;;;;;;;5.03;100.00;97933.85;112272;1178;66038;-76
2021/11/03 03:02:41;;;;;;;57.70;42.30;;;;;;;5.03;100.00;97937.00;112099;1193;60985;-76
2021/11/03 03:05:08;;;;;;;39.90;31.90;;;;;;;5.01;100.00;97933.63;112309;1192;65017;-76
2021/11/03 03:07:35;;;;;;;45.00;35.50;;;;;;;4.95;100.00;97933.48;112280;1192;60953;-76
2021/11/03 03:10:04;;;;;;;42.30;33.80;;;;;;;4.86;100.00;97932.77;112326;1193;60991;-76
2021/11/03 03:12:33;;;;;;;45.40;35.80;;;;;;;4.77;100.00;97934.38;112324;1193;74864;-75
2021/11/03 03:15:00;;;;;;;40.40;33.30;;;;;;;4.71;100.00;97937.77;112220;1193;61003;-76
2021/11/03 03:17:26;;;;;;;44.00;36.10;;;;;;;4.63;100.00;97945.40;112283;1192;65005;-76
2021/11/03 03:19:54;;;;;;;54.00;39.80;;;;;;;4.55;100.00;97939.40;112135;1192;61009;-76
2021/11/03 03:22:20;;;;;;;52.00;38.10;;;;;;;4.51;100.00;97937.02;112304;1193;61127;-76
2021/11/03 03:24:48;;;;;;;45.00;35.30;;;;;;;4.46;100.00;97942.89;112285;1193;65876;-76
2021/11/03 03:27:15;;;;;;;36.90;30.40;;;;;;;4.39;100.00;97947.34;112149;1180;61070;-76
2021/11/03 03:29:41;;;;;;;33.90;29.10;;;;;;;4.30;100.00;97946.83;112155;1193;64033;-75
2021/11/03 03:32:09;;;;;;;39.80;32.00;;;;;;;4.23;100.00;97949.91;112300;1193;61087;-76
2021/11/03 03:34:35;;;;;;;35.10;28.90;;;;;;;4.15;100.00;97952.11;112356;1192;61062;-76
2021/11/03 03:37:03;;;;;;;36.70;30.60;;;;;;;4.06;100.00;97952.27;112202;1193;65871;-76
2021/11/03 03:39:30;;;;;;;31.60;26.20;;;;;;;3.98;100.00;97955.54;112355;1192;61056;-75
2021/11/03 03:42:05;;;;;;;32.60;27.00;;;;;;;3.91;100.00;97958.05;112159;1193;64892;-76
2021/11/03 03:44:32;;;;;;;35.20;27.50;;;;;;;3.83;100.00;97964.10;112162;1193;61136;-76
2021/11/03 03:46:59;;;;;;;32.90;27.10;;;;;;;3.77;100.00;97969.19;112147;1193;61147;-76
2021/11/03 03:49:25;;;;;;;37.10;30.70;;;;;;;3.68;100.00;97970.38;112303;1193;65690;-76
2021/11/03 03:51:53;;;;;;;39.70;30.20;;;;;;;3.62;100.00;97972.33;112361;1192;61024;-76
2021/11/03 03:54:20;;;;;;;50.90;35.60;;;;;;;3.57;100.00;97974.54;112356;1192;62696;-76
2021/11/03 03:56:47;;;;;;;40.00;32.30;;;;;;;3.53;100.00;97978.45;112288;1192;60999;-76
2021/11/03 03:59:15;;;;;;;34.90;29.10;;;;;;;3.49;100.00;97980.55;112333;1193;61062;-76
2021/11/03 04:01:42;;;;;;;47.80;34.70;;;;;;;3.46;100.00;97981.61;112314;1192;66098;-76
2021/11/03 04:04:10;;;;;;;42.10;34.50;;;;;;;3.45;100.00;97982.90;112331;1193;61122;-75
2021/11/03 04:06:37;;;;;;;45.50;33.50;;;;;;;3.46;100.00;97984.60;112264;1193;63986;-77
2021/11/03 04:09:05;;;;;;;44.10;34.50;;;;;;;3.46;100.00;97990.55;112281;1193;61068;-77
2021/11/03 04:11:31;;;;;;;46.30;35.90;;;;;;;3.44;100.00;97997.02;112311;1192;60982;-77
2021/11/03 04:13:58;;;;;;;48.10;37.20;;;;;;;3.41;100.00;97996.98;112320;1192;64690;-75
2021/11/03 04:16:25;;;;;;;49.50;38.10;;;;;;;3.40;100.00;97997.75;112343;1192;60940;-77
2021/11/03 04:18:52;;;;;;;49.50;38.70;;;;;;;3.39;100.00;98000.45;112145;1193;64014;-76
2021/11/03 04:21:19;;;;;;;47.20;36.60;;;;;;;3.35;100.00;98000.09;112297;1193;60971;-76
2021/11/03 04:23:46;;;;;;;45.60;32.90;;;;;;;3.32;100.00;98003.41;112203;1193;60964;-76
2021/11/03 04:26:22;;;;;;;45.50;34.10;;;;;;;3.26;100.00;98000.25;112172;1193;66879;-77
2021/11/03 04:28:49;;;;;;;44.80;33.30;;;;;;;3.20;100.00;97994.95;112311;1193;61142;-77
2021/11/03 04:31:16;;;;;;;44.70;32.20;;;;;;;3.13;100.00;97998.30;112307;1193;64091;-75
2021/11/03 04:33:42;;;;;;;46.20;34.60;;;;;;;3.07;100.00;98000.55;112400;1192;61745;-76
2021/11/03 04:36:10;;;;;;;45.10;34.90;;;;;;;3.00;100.00;98006.70;112224;1193;61055;-77
2021/11/03 04:38:36;;;;;;;45.70;36.50;;;;;;;2.95;100.00;98011.52;112224;1192;64689;-77
2021/11/03 04:41:03;;;;;;;59.00;48.10;;;;;;;2.92;100.00;98011.16;112334;1193;61005;-77
2021/11/03 04:43:30;;;;;;;54.70;41.10;;;;;;;2.87;100.00;98009.64;112283;1193;63990;-76
2021/11/03 04:45:57;;;;;;;44.80;34.30;;;;;;;2.83;100.00;98012.86;112323;1192;61065;-77
2021/11/03 04:48:23;;;;;;;41.70;33.30;;;;;;;2.79;100.00;98017.58;112322;1192;61064;-77
2021/11/03 04:50:50;;;;;;;35.70;28.70;;;;;;;2.74;100.00;98021.21;112324;1193;66942;-77
2021/11/03 04:53:17;;;;;;;37.60;27.90;;;;;;;2.64;100.00;98021.34;112286;1192;61058;-77
2021/11/03 04:55:44;;;;;;;39.40;29.50;;;;;;;2.57;100.00;98023.09;112284;1193;65506;-77
2021/11/03 04:58:11;;;;;;;49.10;35.20;;;;;;;2.52;100.00;98025.84;112323;1192;61017;-77
2021/11/03 05:00:39;;;;;;;58.70;40.80;;;;;;;2.46;100.00;98025.06;112170;1193;60965;-77
2021/11/03 05:03:06;;;;;;;54.20;40.00;;;;;;;2.41;100.00;98024.27;112361;1193;64685;-77
2021/11/03 05:05:35;;;;;;;51.80;38.40;;;;;;;2.38;100.00;98026.33;112183;1193;61152;-77
2021/11/03 05:08:01;;;;;;;53.70;40.60;;;;;;;2.36;100.00;98025.17;112312;1192;64050;-77
2021/11/03 05:10:28;;;;;;;54.20;39.00;;;;;;;2.35;100.00;98022.61;112304;1192;61071;-77
2021/11/03 05:12:55;;;;;;;55.00;40.40;;;;;;;2.33;100.00;98021.30;112298;1193;60994;-77
2021/11/03 05:15:21;;;;;;;58.70;42.70;;;;;;;2.30;100.00;98021.98;112301;1192;65114;-76
2021/11/03 05:17:48;;;;;;;55.60;42.80;;;;;;;2.27;100.00;98022.64;112168;1193;61051;-77
2021/11/03 05:20:17;;;;;;;66.40;49.00;;;;;;;2.25;100.00;98024.16;112323;1193;63972;-77
2021/11/03 05:22:45;;;;;;;66.00;48.10;;;;;;;2.20;100.00;98021.95;112268;1192;61892;-77
2021/11/03 05:25:15;;;;;;;81.90;57.90;;;;;;;2.16;100.00;98018.97;112347;1193;61055;-77
2021/11/03 05:27:42;;;;;;;94.40;63.90;;;;;;;2.15;100.00;98021.67;112362;1193;64718;-76
2021/11/03 05:30:10;;;;;;;92.10;63.40;;;;;;;2.16;100.00;98023.38;112303;1193;61421;-76
2021/11/03 05:32:36;;;;;;;90.20;62.70;;;;;;;2.17;100.00;98022.46;112322;1192;64051;-76
2021/11/03 05:35:04;;;;;;;82.70;57.80;;;;;;;2.17;100.00;98020.53;112181;1193;60985;-78
2021/11/03 05:37:31;;;;;;;85.20;58.00;;;;;;;2.18;100.00;98021.34;112310;1193;61050;-75
2021/11/03 05:39:57;;;;;;;83.00;56.30;;;;;;;2.18;100.00;98020.80;112288;1193;66005;-76
2021/11/03 05:42:24;;;;;;;76.00;55.60;;;;;;;2.18;100.00;98023.08;112292;1193;61087;-76
2021/11/03 05:44:51;;;;;;;77.90;56.60;;;;;;;2.19;100.00;98024.83;112283;1193;62675;-76
2021/11/03 05:47:24;;;;;;;76.20;55.60;;;;;;;2.19;100.00;98028.30;112279;1193;61343;-75
2021/11/03 05:49:51;;;;;;;85.90;60.90;;;;;;;2.18;100.00;98033.08;112351;1193;61060;-78
2021/11/03 05:52:18;;;;;;;91.40;57.10;;;;;;;2.18;100.00;98037.64;112350;1192;66142;-77
2021/11/03 05:54:46;;;;;;;82.30;54.70;;;;;;;2.21;100.00;98043.83;112321;1193;60988;-78
2021/11/03 05:57:27;;;;;;;64.20;44.10;;;;;;;2.23;100.00;98047.02;112300;1193;64353;-77
2021/11/03 05:59:55;;;;;;;67.70;50.40;;;;;;;2.22;100.00;98052.55;112305;1193;61042;-78
2021/11/03 06:02:23;;;;;;;69.80;49.00;;;;;;;2.23;100.00;98050.39;112293;1192;61046;-75
2021/11/03 06:04:49;;;;;;;72.30;50.70;;;;;;;2.27;100.00;98055.11;112320;1193;66019;-76
2021/11/03 06:07:18;;;;;;;68.70;51.30;;;;;;;2.28;100.00;98056.08;112141;1193;61080;-76
2021/11/03 06:09:45;;;;;;;69.80;51.10;;;;;;;2.30;100.00;98061.63;112279;1193;64006;-76
2021/11/03 06:12:12;;;;;;;70.40;51.60;;;;;;;2.31;100.00;98068.20;112259;1192;60984;-76
2021/11/03 06:14:39;;;;;;;66.30;50.30;;;;;;;2.36;100.00;98074.45;112177;1192;61514;-75
2021/11/03 06:17:05;;;;;;;67.90;50.80;;;;;;;2.41;100.00;98076.31;112294;1193;66046;-75
2021/11/03 06:19:32;;;;;;;65.10;48.40;;;;;;;2.46;100.00;98074.84;112306;1193;60960;-76
2021/11/03 06:21:59;;;;;;;65.30;48.00;;;;;;;2.52;100.00;98082.12;112294;1193;63981;-77
2021/11/03 06:24:28;;;;;;;64.80;47.50;;;;;;;2.58;100.00;98082.84;112469;1192;61053;-84
2021/11/03 06:26:55;;;;;;;57.90;47.20;;;;;;;2.64;100.00;98080.97;112493;1193;61048;-85
2021/11/03 06:29:22;;;;;;;56.40;43.90;;;;;;;2.69;100.00;98083.73;112434;1193;64791;-85
2021/11/03 06:31:48;;;;;;;56.00;45.10;;;;;;;2.73;100.00;98088.80;112505;1192;61761;-90
2021/11/03 06:34:15;;;;;;;55.20;44.70;;;;;;;2.77;100.00;98093.50;112288;1193;64007;-77
2021/11/03 06:36:41;;;;;;;55.80;45.50;;;;;;;2.82;100.00;98094.63;112269;1193;61058;-76
2021/11/03 06:39:09;;;;;;;56.20;45.50;;;;;;;2.90;100.00;98097.05;112327;1192;61055;-77
2021/11/03 06:41:38;;;;;;;59.30;46.00;;;;;;;2.99;100.00;98098.89;112348;1193;65008;-76
2021/11/03 06:44:05;;;;;;;54.60;45.10;;;;;;;3.06;100.00;98096.92;112300;1192;61087;-76
2021/11/03 06:46:32;;;;;;;55.60;45.70;;;;;;;3.14;100.00;98101.46;112300;1193;64974;-76
2021/11/03 06:49:00;;;;;;;57.80;47.60;;;;;;;3.22;100.00;98105.45;112165;1193;61206;-77
2021/11/03 06:51:26;;;;;;;57.20;46.20;;;;;;;3.28;100.00;98107.02;112357;1192;61066;-77
2021/11/03 06:53:53;;;;;;;59.50;46.60;;;;;;;3.36;100.00;98110.67;112219;1192;66029;-76
2021/11/03 06:56:20;;;;;;;63.10;52.20;;;;;;;3.46;100.00;98113.48;112272;1193;61049;-76
2021/11/03 06:58:47;;;;;;;71.20;60.90;;;;;;;3.58;100.00;98110.41;112331;1178;63990;-76
2021/11/03 07:01:14;;;;;;;79.70;66.00;;;;;;;3.71;100.00;98108.65;112302;1192;61045;-77
2021/11/03 07:03:42;;;;;;;77.40;65.30;;;;;;;3.85;100.00;98111.09;112223;1193;61012;-77
2021/11/03 07:06:09;;;;;;;79.80;70.20;;;;;;;3.97;100.00;98113.92;112384;1192;64829;-78
2021/11/03 07:08:36;;;;;;;76.00;63.40;;;;;;;4.10;100.00;98118.34;112348;1193;61039;-77
2021/11/03 07:11:03;;;;;;;64.80;54.10;;;;;;;4.21;100.00;98118.58;112349;1193;63988;-77
2021/11/03 07:13:29;;;;;;;65.00;52.70;;;;;;;4.34;100.00;98115.59;112254;1193;61059;-76
2021/11/03 07:15:57;;;;;;;64.70;53.80;;;;;;;4.47;100.00;98112.57;112287;1192;61206;-76
2021/11/03 07:18:24;;;;;;;60.80;53.40;;;;;;;4.60;100.00;98116.58;112302;1192;66994;-77
2021/11/03 07:20:51;;;;;;;55.00;47.90;;;;;;;4.73;100.00;98115.67;112324;1193;61065;-78
2021/11/03 07:23:21;;;;;;;57.40;49.20;;;;;;;4.87;100.00;98117.16;112318;1193;62747;-77
2021/11/03 07:25:49;;;;;;;52.50;42.90;;;;;;;5.02;100.00;98118.41;112302;1192;60985;-75
2021/11/03 07:28:16;;;;;;;43.60;38.70;;;;;;;5.20;100.00;98119.28;112187;1193;61128;-79
2021/11/03 07:30:44;;;;;;;50.10;40.60;;;;;;;5.34;100.00;98123.55;112318;1192;66059;-78
2021/11/03 07:33:12;;;;;;;40.70;33.40;;;;;;;5.45;100.00;98123.41;112296;1193;60946;-78
2021/11/03 07:35:40;;;;;;;37.10;31.10;;;;;;;5.55;100.00;98123.52;112360;1192;64127;-78
2021/11/03 07:38:08;;;;;;;34.40;30.00;;;;;;;5.66;100.00;98119.47;112304;1193;61141;-78
2021/11/03 07:40:43;;;;;;;33.40;28.80;;;;;;;5.77;100.00;98118.65;112341;1192;61075;-78
2021/11/03 07:43:10;;;;;;;30.20;26.70;;;;;;;5.88;100.00;98117.98;112348;1193;66012;-78
2021/11/03 07:45:39;;;;;;;28.30;24.20;;;;;;;5.99;100.00;98121.05;112300;1193;60947;-76
2021/11/03 07:48:07;;;;;;;29.30;24.30;;;;;;;6.09;100.00;98125.70;112324;1193;64041;-77
2021/11/03 07:50:40;;;;;;;25.50;22.70;;;;;;;6.20;100.00;98126.09;112299;1193;61138;-77
2021/11/03 07:53:09;;;;;;;19.90;16.70;;;;;;;6.31;100.00;98126.83;112202;1192;60987;-77
2021/11/03 07:55:37;;;;;;;21.80;18.50;;;;;;;6.41;100.00;98130.04;112276;1192;66025;-77
2021/11/03 07:58:04;;;;;;;20.30;17.00;;;;;;;6.51;100.00;98131.14;112247;1192;61071;-76
2021/11/03 08:00:35;;;;;;;19.30;15.60;;;;;;;6.61;100.00;98131.95;112267;1192;65303;-77
2021/11/03 08:03:02;;;;;;;18.10;15.60;;;;;;;6.71;100.00;98134.42;112284;1192;61127;-76
2021/11/03 08:05:29;;;;;;;18.00;15.10;;;;;;;6.82;100.00;98134.95;112152;1192;60937;-76
2021/11/03 08:07:58;;;;;;;22.70;16.20;;;;;;;6.92;100.00;98138.03;112282;1193;66070;-76
2021/11/03 08:10:27;;;;;;;18.90;15.80;;;;;;;7.02;100.00;98136.12;112254;1193;61081;-75
2021/11/03 08:12:55;;;;;;;19.50;17.00;;;;;;;7.14;100.00;98136.61;112291;1192;64005;-77
2021/11/03 08:15:28;;;;;;;19.20;15.20;;;;;;;7.24;100.00;98141.73;112235;1192;61058;-77
2021/11/03 08:17:56;;;;;;;17.50;13.30;;;;;;;7.35;100.00;98143.14;112274;1192;61008;-78
2021/11/03 08:20:25;;;;;;;17.80;14.10;;;;;;;7.43;99.98;98146.06;112329;1193;66986;-77
2021/11/03 08:22:54;;;;;;;18.40;13.50;;;;;;;7.52;99.95;98146.20;112338;1192;62365;-78
2021/11/03 08:25:21;;;;;;;15.00;12.40;;;;;;;7.60;99.78;98145.66;112279;1192;65034;-78
2021/11/03 08:27:48;;;;;;;14.00;11.70;;;;;;;7.67;99.62;98142.67;112267;1193;61042;-78
2021/11/03 08:30:15;;;;;;;14.50;11.30;;;;;;;7.75;99.39;98140.73;112296;1193;61039;-77
2021/11/03 08:32:52;;;;;;;14.80;11.10;;;;;;;7.82;99.33;98141.48;112309;1193;64631;-77
2021/11/03 08:35:21;;;;;;;14.30;11.50;;;;;;;7.89;99.27;98137.11;112272;1193;60928;-77
2021/11/03 08:37:52;;;;;;;13.50;11.30;;;;;;;7.96;99.21;98131.86;112336;1193;62926;-78
2021/11/03 08:40:22;;;;;;;14.50;11.60;;;;;;;8.02;98.77;98131.07;112272;1193;61004;-78
2021/11/03 08:42:50;;;;;;;13.60;11.30;;;;;;;8.10;98.76;98133.12;112248;1194;60966;-78
2021/11/03 08:45:17;;;;;;;14.20;11.20;;;;;;;8.18;98.57;98131.90;112327;1193;67194;-78
2021/11/03 08:47:44;;;;;;;13.80;11.00;;;;;;;8.26;98.56;98138.05;112271;1194;61043;-77
2021/11/03 08:50:16;;;;;;;14.20;11.50;;;;;;;8.33;98.44;98131.86;112243;1193;64018;-78
2021/11/03 08:52:43;;;;;;;12.60;10.30;;;;;;;8.41;98.00;98130.63;112287;1177;61034;-76
2021/11/03 08:55:11;;;;;;;14.90;10.90;;;;;;;8.48;97.65;98127.27;112171;1194;61439;-76
2021/11/03 08:57:39;;;;;;;18.80;10.40;;;;;;;8.57;97.59;98127.35;112311;1193;66106;-76
2021/11/03 09:00:12;;;;;;;13.40;9.80;;;;;;;8.68;97.21;98129.39;112316;1193;61750;-76
2021/11/03 09:02:39;;;;;;;13.60;10.50;;;;;;;8.78;96.87;98132.39;112318;1193;64127;-76
2021/11/03 09:05:06;;;;;;;15.90;10.10;;;;;;;8.90;97.01;98132.17;112250;1193;61058;-76
2021/11/03 09:07:33;;;;;;;13.10;10.20;;;;;;;8.99;96.86;98128.33;112333;1193;61078;-77
2021/11/03 09:10:06;;;;;;;11.60;9.40;;;;;;;9.07;96.64;98127.39;112313;1193;64723;-77
2021/11/03 09:12:33;;;;;;;9.70;8.50;;;;;;;9.16;96.54;98126.21;112318;1193;61050;-77
2021/11/03 09:14:59;;;;;;;11.70;9.20;;;;;;;9.23;96.43;98125.65;112298;1193;63980;-78
2021/11/03 09:17:27;;;;;;;11.10;9.70;;;;;;;9.30;96.04;98124.41;112284;1193;60962;-76
2021/11/03 09:19:55;;;;;;;10.90;9.40;;;;;;;9.38;95.42;98126.46;112154;1193;60970;-77
2021/11/03 09:22:22;;;;;;;10.00;8.30;;;;;;;9.48;95.41;98128.95;112276;1193;64796;-77
2021/11/03 09:24:49;;;;;;;13.00;9.40;;;;;;;9.56;95.28;98127.98;112313;1193;61197;-78
2021/11/03 09:27:16;;;;;;;11.80;9.40;;;;;;;9.63;94.65;98129.88;112275;1193;63893;-78
2021/11/03 09:29:49;;;;;;;12.80;9.50;;;;;;;9.71;94.14;98122.20;112280;1186;61164;-76
2021/11/03 09:32:20;;;;;;;12.90;8.20;;;;;;;9.80;93.90;98125.38;112215;1193;61102;-77
2021/11/03 09:34:50;;;;;;;11.40;8.10;;;;;;;9.90;93.99;98127.28;112279;1193;66221;-76
2021/11/03 09:37:20;;;;;;;10.80;8.90;;;;;;;9.99;93.60;98126.41;112363;1193;61011;-78
2021/11/03 09:39:49;;;;;;;11.10;8.80;;;;;;;10.09;93.35;98128.45;112306;1193;65332;-78
2021/11/03 09:42:16;;;;;;;8.80;7.20;;;;;;;10.19;93.33;98129.63;112172;1194;61135;-78
2021/11/03 09:44:46;;;;;;;10.80;6.70;;;;;;;10.26;93.07;98124.78;112340;1193;61073;-78
2021/11/03 09:47:13;;;;;;;8.40;6.20;;;;;;;10.34;92.91;98119.76;112345;1192;65903;-76
2021/11/03 09:49:48;;;;;;;8.70;7.10;;;;;;;10.43;92.50;98119.86;112316;1193;60954;-77
2021/11/03 09:52:27;;;;;;;7.20;6.00;;;;;;;10.52;92.14;98111.33;112305;1193;64969;-78
2021/11/03 09:54:58;;;;;;;8.10;6.40;;;;;;;10.62;91.89;98110.19;112283;1192;60966;-77
2021/11/03 09:57:41;;;;;;;10.10;5.90;;;;;;;10.72;91.80;98112.23;112281;1193;61071;-77
2021/11/03 10:00:25;;;;;;;8.10;5.60;;;;;;;10.83;91.50;98111.19;112300;1193;66015;-78
2021/11/03 10:03:04;;;;;;;6.70;4.80;;;;;;;10.91;90.72;98110.84;112150;1193;61031;-77
2021/11/03 10:05:49;;;;;;;5.20;4.50;;;;;;;11.01;90.47;98108.10;112311;1193;62665;-78
2021/11/03 10:08:19;;;;;;;8.20;4.30;;;;;;;11.11;90.48;98109.06;112297;1192;61045;-77
2021/11/03 10:10:57;;;;;;;6.00;3.80;;;;;;;11.20;90.20;98106.14;112157;1193;61032;-78
2021/11/03 10:13:39;;;;;;;7.80;4.30;;;;;;;11.29;89.41;98102.38;112332;1192;67255;-78
2021/11/03 10:16:14;;;;;;;5.90;4.20;;;;;;;11.39;89.01;98099.95;112185;1195;60927;-77
2021/11/03 10:19:06;;;;;;;5.50;4.00;;;;;;;11.51;88.43;98092.70;112278;1193;64765;-76
2021/11/03 10:21:48;;;;;;;5.20;3.80;;;;;;;11.61;88.04;98087.93;112296;1193;61027;-75
2021/11/03 10:24:15;;;;;;;4.90;3.80;;;;;;;11.68;87.04;98091.21;112360;1193;61046;-78
2021/11/03 10:27:09;;;;;;;5.40;3.10;;;;;;;11.75;86.70;98089.91;112293;1193;66958;-78
2021/11/03 10:29:40;;;;;;;6.80;3.40;;;;;;;11.85;86.91;98087.33;112203;1193;61045;-77
2021/11/03 10:32:07;;;;;;;4.20;3.80;;;;;;;11.93;86.93;98083.21;112148;1195;62677;-78
2021/11/03 10:34:33;;;;;;;5.10;3.20;;;;;;;12.01;86.87;98074.01;112322;1193;61027;-79
2021/11/03 10:37:09;;;;;;;6.50;4.10;;;;;;;12.07;86.09;98070.64;112289;1192;61078;-78
2021/11/03 10:40:22;;;;;;;4.50;2.70;;;;;;;12.14;85.84;98065.55;112289;1193;65933;-78
2021/11/03 10:42:52;;;;;;;3.90;2.40;;;;;;;12.23;85.65;98063.67;111923;1194;61042;-76
2021/11/03 10:45:29;;;;;;;2.70;1.40;;;;;;;12.32;85.41;98064.83;112261;1193;64048;-77
2021/11/03 10:48:10;;;;;;;1.10;1.10;;;;;;;12.40;84.75;98060.92;112325;1193;61424;-77
2021/11/03 10:50:57;;;;;;;2.40;0.80;;;;;;;12.49;84.35;98059.79;112324;1193;61040;-76
2021/11/03 10:53:35;;;;;;;1.40;0.90;;;;;;;12.55;83.88;98061.39;112289;1192;64978;-76
2021/11/03 10:56:20;;;;;;;2.50;1.60;;;;;;;12.60;83.53;98053.81;112315;1193;60931;-76
2021/11/03 10:58:50;;;;;;;0.90;0.70;;;;;;;12.63;83.16;98050.27;112285;1193;62608;-76
2021/11/03 11:01:22;;;;;;;2.00;1.00;;;;;;;12.69;82.65;98047.06;112306;1192;60968;-77
2021/11/03 11:04:12;;;;;;;0.70;0.70;;;;;;;12.78;82.27;98044.51;112279;1192;61017;-76
2021/11/03 11:06:47;;;;;;;1.10;0.80;;;;;;;12.88;81.93;98046.23;112296;1192;64657;-76
2021/11/03 11:09:29;;;;;;;0.80;0.70;;;;;;;12.94;80.84;98043.92;112164;1193;61053;-76
2021/11/03 11:12:00;;;;;;;1.20;1.10;;;;;;;12.97;79.67;98041.69;112296;1193;63954;-76
2021/11/03 11:14:31;;;;;;;2.10;0.80;;;;;;;13.00;80.39;98038.91;112306;1193;61045;-78
2021/11/03 11:17:14;;;;;;;1.20;0.90;;;;;;;13.01;80.26;98039.21;112299;1186;60997;-77
2021/11/03 11:19:59;;;;;;;1.60;0.80;;;;;;;13.00;80.04;98039.81;112331;1193;64659;-77
2021/11/03 11:22:31;;;;;;;1.60;0.70;;;;;;;12.98;79.39;98036.97;112309;1193;60944;-77
2021/11/03 11:25:12;;;;;;;1.30;0.80;;;;;;;12.95;78.58;98028.79;112264;1193;64966;-77